sensor_id;sensor_type;location;lat;lon;timestamp;temperature;humidity
28438;DHT22;15667;52.376;9.708;2023-04-08T00:01:54;6.40;99.90
28438;DHT22;15667;52.376;9.708;2023-04-08T00:04:20;6.40;99.90
28438;DHT22;15667;52.376;9.708;2023-04-08T00:06:46;7.00;99.90
28438;DHT22;15667;52.376;9.708;2023-04-08T00:09:11;6.20;99.90
28438;DHT22;15667;52.376;9.708;2023-04-08T00:11:37;6.30;99.90
28438;DHT22;15667;52.376;9.708;2023-04-08T00:14:03;7.20;99.90
28438;DHT22;15667;52.376;9.708;2023-04-08T00:16:29;6.90;99.90
28438;DHT22;15667;52.376;9.708;2023-04-08T00:18:55;6.20;99.90
28438;DHT22;15667;52.376;9.708;2023-04-08T00:21:21;6.20;99.90
28438;DHT22;15667;52.376;9.708;2023-04-08T00:23:48;6.10;99.90
28438;DHT22;15667;52.376;9.708;2023-04-08T00:26:16;6.20;99.90
28438;DHT22;15667;52.376;9.708;2023-04-08T00:28:42;6.50;99.90
28438;DHT22;15667;52.376;9.708;2023-04-08T00:31:08;6.20;99.90
28438;DHT22;15667;52.376;9.708;2023-04-08T00:33:34;6.20;99.90
28438;DHT22;15667;52.376;9.708;2023-04-08T00:35:59;5.00;99.90
28438;DHT22;15667;52.376;9.708;2023-04-08T00:38:25;6.60;99.90
28438;DHT22;15667;52.376;9.708;2023-04-08T00:40:51;6.30;99.90
28438;DHT22;15667;52.376;9.708;2023-04-08T00:43:16;6.30;99.90
28438;DHT22;15667;52.376;9.708;2023-04-08T00:45:45;7.20;99.90
28438;DHT22;15667;52.376;9.708;2023-04-08T00:48:11;6.30;99.90
28438;DHT22;15667;52.376;9.708;2023-04-08T00:50:37;6.30;99.90
28438;DHT22;15667;52.376;9.708;2023-04-08T00:53:02;6.30;99.90
28438;DHT22;15667;52.376;9.708;2023-04-08T00:55:28;6.40;99.90
28438;DHT22;15667;52.376;9.708;2023-04-08T00:57:55;6.30;99.90
28438;DHT22;15667;52.376;9.708;2023-04-08T01:00:20;6.10;99.90
28438;DHT22;15667;52.376;9.708;2023-04-08T01:05:42;6.00;99.90
28438;DHT22;15667;52.376;9.708;2023-04-08T01:08:11;5.90;99.90
28438;DHT22;15667;52.376;9.708;2023-04-08T01:10:38;5.80;99.90
28438;DHT22;15667;52.376;9.708;2023-04-08T01:13:12;6.00;99.90
28438;DHT22;15667;52.376;9.708;2023-04-08T01:15:39;6.00;99.90
28438;DHT22;15667;52.376;9.708;2023-04-08T01:18:08;6.00;99.90
28438;DHT22;15667;52.376;9.708;2023-04-08T01:20:35;6.10;99.90
28438;DHT22;15667;52.376;9.708;2023-04-08T01:25:31;6.20;99.90
28438;DHT22;15667;52.376;9.708;2023-04-08T01:28:19;6.30;99.90
28438;DHT22;15667;52.376;9.708;2023-04-08T01:30:45;6.20;99.90
28438;DHT22;15667;52.376;9.708;2023-04-08T01:33:14;6.30;99.90
28438;DHT22;15667;52.376;9.708;2023-04-08T01:35:41;6.20;99.90
28438;DHT22;15667;52.376;9.708;2023-04-08T01:38:08;6.20;99.90
28438;DHT22;15667;52.376;9.708;2023-04-08T01:40:37;6.10;99.90
28438;DHT22;15667;52.376;9.708;2023-04-08T01:43:05;6.10;99.90
28438;DHT22;15667;52.376;9.708;2023-04-08T01:45:31;6.30;99.90
28438;DHT22;15667;52.376;9.708;2023-04-08T01:47:57;6.30;99.90
28438;DHT22;15667;52.376;9.708;2023-04-08T01:50:26;6.00;99.90
28438;DHT22;15667;52.376;9.708;2023-04-08T01:52:52;5.90;99.90
28438;DHT22;15667;52.376;9.708;2023-04-08T01:55:19;5.90;99.90
28438;DHT22;15667;52.376;9.708;2023-04-08T01:57:50;5.90;99.90
28438;DHT22;15667;52.376;9.708;2023-04-08T02:00:20;6.00;99.90
28438;DHT22;15667;52.376;9.708;2023-04-08T02:02:47;6.10;99.90
28438;DHT22;15667;52.376;9.708;2023-04-08T02:05:13;6.10;99.90
28438;DHT22;15667;52.376;9.708;2023-04-08T02:07:39;5.80;99.90
28438;DHT22;15667;52.376;9.708;2023-04-08T02:10:05;6.10;99.90
28438;DHT22;15667;52.376;9.708;2023-04-08T02:12:32;5.80;99.90
28438;DHT22;15667;52.376;9.708;2023-04-08T02:14:58;5.80;99.90
28438;DHT22;15667;52.376;9.708;2023-04-08T02:17:38;5.90;99.90
28438;DHT22;15667;52.376;9.708;2023-04-08T02:20:11;6.00;99.90
28438;DHT22;15667;52.376;9.708;2023-04-08T02:25:20;5.90;99.90
28438;DHT22;15667;52.376;9.708;2023-04-08T02:27:48;5.90;99.90
28438;DHT22;15667;52.376;9.708;2023-04-08T02:30:14;5.90;99.90
28438;DHT22;15667;52.376;9.708;2023-04-08T02:32:43;6.40;99.90
28438;DHT22;15667;52.376;9.708;2023-04-08T02:35:10;6.10;99.90
28438;DHT22;15667;52.376;9.708;2023-04-08T02:37:36;6.00;99.90
28438;DHT22;15667;52.376;9.708;2023-04-08T02:40:02;6.00;99.90
28438;DHT22;15667;52.376;9.708;2023-04-08T02:42:28;5.90;99.90
28438;DHT22;15667;52.376;9.708;2023-04-08T02:44:53;5.90;99.90
28438;DHT22;15667;52.376;9.708;2023-04-08T02:47:19;6.60;99.90
28438;DHT22;15667;52.376;9.708;2023-04-08T02:49:45;6.00;99.90
28438;DHT22;15667;52.376;9.708;2023-04-08T02:52:10;5.90;99.90
28438;DHT22;15667;52.376;9.708;2023-04-08T02:54:36;6.00;99.90
28438;DHT22;15667;52.376;9.708;2023-04-08T02:57:01;6.00;99.90
28438;DHT22;15667;52.376;9.708;2023-04-08T02:59:27;6.00;99.90
28438;DHT22;15667;52.376;9.708;2023-04-08T03:01:52;6.00;99.90
28438;DHT22;15667;52.376;9.708;2023-04-08T03:04:18;6.10;99.90
28438;DHT22;15667;52.376;9.708;2023-04-08T03:06:44;6.10;99.90
28438;DHT22;15667;52.376;9.708;2023-04-08T03:09:09;6.10;99.90
28438;DHT22;15667;52.376;9.708;2023-04-08T03:11:35;6.10;99.90
28438;DHT22;15667;52.376;9.708;2023-04-08T03:14:01;6.20;99.90
28438;DHT22;15667;52.376;9.708;2023-04-08T03:16:26;6.00;99.90
28438;DHT22;15667;52.376;9.708;2023-04-08T03:18:52;6.00;99.90
28438;DHT22;15667;52.376;9.708;2023-04-08T03:21:17;6.00;99.90
28438;DHT22;15667;52.376;9.708;2023-04-08T03:23:43;6.70;99.90
28438;DHT22;15667;52.376;9.708;2023-04-08T03:26:09;6.00;99.90
28438;DHT22;15667;52.376;9.708;2023-04-08T03:28:35;6.00;99.90
28438;DHT22;15667;52.376;9.708;2023-04-08T03:31:03;6.00;99.90
28438;DHT22;15667;52.376;9.708;2023-04-08T03:33:29;6.00;99.90
28438;DHT22;15667;52.376;9.708;2023-04-08T03:35:55;6.00;99.90
28438;DHT22;15667;52.376;9.708;2023-04-08T03:38:20;6.10;99.90
28438;DHT22;15667;52.376;9.708;2023-04-08T03:40:46;6.10;99.90
28438;DHT22;15667;52.376;9.708;2023-04-08T03:43:13;6.10;99.90
28438;DHT22;15667;52.376;9.708;2023-04-08T03:45:39;6.10;99.90
28438;DHT22;15667;52.376;9.708;2023-04-08T03:48:05;6.00;99.90
28438;DHT22;15667;52.376;9.708;2023-04-08T03:50:30;6.00;99.90
28438;DHT22;15667;52.376;9.708;2023-04-08T03:52:56;5.10;99.90
28438;DHT22;15667;52.376;9.708;2023-04-08T03:55:21;6.00;99.90
28438;DHT22;15667;52.376;9.708;2023-04-08T03:57:47;6.00;99.90
28438;DHT22;15667;52.376;9.708;2023-04-08T04:00:16;6.00;99.90
28438;DHT22;15667;52.376;9.708;2023-04-08T04:02:41;6.00;99.90
28438;DHT22;15667;52.376;9.708;2023-04-08T04:05:07;6.10;99.90
28438;DHT22;15667;52.376;9.708;2023-04-08T04:07:33;6.00;99.90
28438;DHT22;15667;52.376;9.708;2023-04-08T04:09:58;6.10;99.90
28438;DHT22;15667;52.376;9.708;2023-04-08T04:12:24;6.10;99.90
28438;DHT22;15667;52.376;9.708;2023-04-08T04:14:49;6.10;99.90
28438;DHT22;15667;52.376;9.708;2023-04-08T04:17:15;6.00;99.90
28438;DHT22;15667;52.376;9.708;2023-04-08T04:19:41;6.10;99.90
28438;DHT22;15667;52.376;9.708;2023-04-08T04:22:06;6.00;99.90
28438;DHT22;15667;52.376;9.708;2023-04-08T04:24:32;6.10;99.90
28438;DHT22;15667;52.376;9.708;2023-04-08T04:26:58;6.20;99.90
28438;DHT22;15667;52.376;9.708;2023-04-08T04:29:23;6.10;99.90
28438;DHT22;15667;52.376;9.708;2023-04-08T04:31:49;6.20;99.90
28438;DHT22;15667;52.376;9.708;2023-04-08T04:34:15;6.00;99.90
28438;DHT22;15667;52.376;9.708;2023-04-08T04:36:40;6.10;99.90
28438;DHT22;15667;52.376;9.708;2023-04-08T04:39:06;6.10;99.90
28438;DHT22;15667;52.376;9.708;2023-04-08T04:41:32;6.80;99.90
28438;DHT22;15667;52.376;9.708;2023-04-08T04:43:57;6.00;99.90
28438;DHT22;15667;52.376;9.708;2023-04-08T04:46:23;6.70;99.90
28438;DHT22;15667;52.376;9.708;2023-04-08T04:48:48;5.90;99.90
28438;DHT22;15667;52.376;9.708;2023-04-08T04:51:14;5.90;99.90
28438;DHT22;15667;52.376;9.708;2023-04-08T04:53:39;5.80;99.90
28438;DHT22;15667;52.376;9.708;2023-04-08T04:56:05;5.90;99.90
28438;DHT22;15667;52.376;9.708;2023-04-08T04:58:31;6.00;99.90
28438;DHT22;15667;52.376;9.708;2023-04-08T05:00:56;6.10;99.90
28438;DHT22;15667;52.376;9.708;2023-04-08T05:03:22;5.80;99.90
28438;DHT22;15667;52.376;9.708;2023-04-08T05:05:52;5.80;99.90
28438;DHT22;15667;52.376;9.708;2023-04-08T05:08:18;6.50;99.90
28438;DHT22;15667;52.376;9.708;2023-04-08T05:10:43;5.80;99.90
28438;DHT22;15667;52.376;9.708;2023-04-08T05:13:09;5.90;99.90
28438;DHT22;15667;52.376;9.708;2023-04-08T05:15:35;5.90;99.90
28438;DHT22;15667;52.376;9.708;2023-04-08T05:18:01;5.80;99.90
28438;DHT22;15667;52.376;9.708;2023-04-08T05:20:26;5.90;99.90
28438;DHT22;15667;52.376;9.708;2023-04-08T05:22:52;6.00;99.90
28438;DHT22;15667;52.376;9.708;2023-04-08T05:25:18;5.90;99.90
28438;DHT22;15667;52.376;9.708;2023-04-08T05:27:44;5.90;99.90
28438;DHT22;15667;52.376;9.708;2023-04-08T05:30:10;5.90;99.90
28438;DHT22;15667;52.376;9.708;2023-04-08T05:32:38;5.70;99.90
28438;DHT22;15667;52.376;9.708;2023-04-08T05:35:05;5.80;99.90
28438;DHT22;15667;52.376;9.708;2023-04-08T05:37:30;5.80;99.90
28438;DHT22;15667;52.376;9.708;2023-04-08T05:39:56;5.80;99.90
28438;DHT22;15667;52.376;9.708;2023-04-08T05:42:21;5.80;99.90
28438;DHT22;15667;52.376;9.708;2023-04-08T05:44:47;5.60;99.90
28438;DHT22;15667;52.376;9.708;2023-04-08T05:47:12;5.70;99.90
28438;DHT22;15667;52.376;9.708;2023-04-08T05:49:39;5.80;99.90
28438;DHT22;15667;52.376;9.708;2023-04-08T05:52:05;5.90;99.90
28438;DHT22;15667;52.376;9.708;2023-04-08T05:54:31;5.90;99.90
28438;DHT22;15667;52.376;9.708;2023-04-08T05:56:57;5.90;99.90
28438;DHT22;15667;52.376;9.708;2023-04-08T05:59:22;6.00;99.90
28438;DHT22;15667;52.376;9.708;2023-04-08T06:01:48;6.00;99.90
28438;DHT22;15667;52.376;9.708;2023-04-08T06:04:13;6.10;99.90
28438;DHT22;15667;52.376;9.708;2023-04-08T06:06:39;6.10;99.90
28438;DHT22;15667;52.376;9.708;2023-04-08T06:09:04;6.00;99.90
28438;DHT22;15667;52.376;9.708;2023-04-08T06:11:30;6.00;99.90
28438;DHT22;15667;52.376;9.708;2023-04-08T06:13:56;5.90;99.90
28438;DHT22;15667;52.376;9.708;2023-04-08T06:16:21;5.90;99.90
28438;DHT22;15667;52.376;9.708;2023-04-08T06:18:47;5.90;99.90
28438;DHT22;15667;52.376;9.708;2023-04-08T06:21:13;6.00;99.90
28438;DHT22;15667;52.376;9.708;2023-04-08T06:23:38;6.00;99.90
28438;DHT22;15667;52.376;9.708;2023-04-08T06:26:04;6.00;99.90
28438;DHT22;15667;52.376;9.708;2023-04-08T06:28:30;6.00;99.90
28438;DHT22;15667;52.376;9.708;2023-04-08T06:30:57;6.00;99.90
28438;DHT22;15667;52.376;9.708;2023-04-08T06:33:22;6.00;99.90
28438;DHT22;15667;52.376;9.708;2023-04-08T06:35:48;6.10;99.90
28438;DHT22;15667;52.376;9.708;2023-04-08T06:38:13;6.10;99.90
28438;DHT22;15667;52.376;9.708;2023-04-08T06:40:39;6.10;99.90
28438;DHT22;15667;52.376;9.708;2023-04-08T06:43:05;6.20;99.90
28438;DHT22;15667;52.376;9.708;2023-04-08T06:45:34;6.10;99.90
28438;DHT22;15667;52.376;9.708;2023-04-08T06:47:59;6.00;99.90
28438;DHT22;15667;52.376;9.708;2023-04-08T06:50:25;6.00;99.90
28438;DHT22;15667;52.376;9.708;2023-04-08T06:52:54;6.10;99.90
28438;DHT22;15667;52.376;9.708;2023-04-08T06:55:21;7.00;99.90
28438;DHT22;15667;52.376;9.708;2023-04-08T06:57:48;5.90;99.90
28438;DHT22;15667;52.376;9.708;2023-04-08T07:00:14;6.10;99.90
28438;DHT22;15667;52.376;9.708;2023-04-08T07:02:40;6.00;99.90
28438;DHT22;15667;52.376;9.708;2023-04-08T07:05:06;6.00;99.90
28438;DHT22;15667;52.376;9.708;2023-04-08T07:08:32;6.00;99.90
28438;DHT22;15667;52.376;9.708;2023-04-08T07:10:27;5.90;99.90
28438;DHT22;15667;52.376;9.708;2023-04-08T07:12:53;5.40;99.90
28438;DHT22;15667;52.376;9.708;2023-04-08T07:15:19;6.90;99.90
28438;DHT22;15667;52.376;9.708;2023-04-08T07:17:45;4.70;99.90
28438;DHT22;15667;52.376;9.708;2023-04-08T07:20:12;6.20;99.90
28438;DHT22;15667;52.376;9.708;2023-04-08T07:22:40;6.30;99.90
28438;DHT22;15667;52.376;9.708;2023-04-08T07:25:06;6.30;99.90
28438;DHT22;15667;52.376;9.708;2023-04-08T07:27:35;6.20;99.90
28438;DHT22;15667;52.376;9.708;2023-04-08T07:30:01;6.10;99.90
28438;DHT22;15667;52.376;9.708;2023-04-08T07:32:27;6.30;99.90
28438;DHT22;15667;52.376;9.708;2023-04-08T07:34:53;7.20;99.90
28438;DHT22;15667;52.376;9.708;2023-04-08T07:37:18;6.50;99.90
28438;DHT22;15667;52.376;9.708;2023-04-08T07:39:44;7.20;99.90
28438;DHT22;15667;52.376;9.708;2023-04-08T07:42:10;5.80;99.90
28438;DHT22;15667;52.376;9.708;2023-04-08T07:44:39;6.40;99.90
28438;DHT22;15667;52.376;9.708;2023-04-08T07:47:05;7.00;99.90
28438;DHT22;15667;52.376;9.708;2023-04-08T07:49:31;6.60;99.90
28438;DHT22;15667;52.376;9.708;2023-04-08T07:51:56;7.00;99.90
28438;DHT22;15667;52.376;9.708;2023-04-08T07:54:24;6.50;99.90
28438;DHT22;15667;52.376;9.708;2023-04-08T07:56:50;6.50;99.90
28438;DHT22;15667;52.376;9.708;2023-04-08T07:59:16;6.30;99.90
28438;DHT22;15667;52.376;9.708;2023-04-08T08:01:42;7.90;99.90
28438;DHT22;15667;52.376;9.708;2023-04-08T08:04:07;6.40;99.90
28438;DHT22;15667;52.376;9.708;2023-04-08T08:06:33;6.50;99.90
28438;DHT22;15667;52.376;9.708;2023-04-08T08:08:59;6.70;99.90
28438;DHT22;15667;52.376;9.708;2023-04-08T08:11:25;5.70;99.90
28438;DHT22;15667;52.376;9.708;2023-04-08T08:13:54;6.40;99.90
28438;DHT22;15667;52.376;9.708;2023-04-08T08:16:20;7.50;99.90
28438;DHT22;15667;52.376;9.708;2023-04-08T08:18:46;6.50;99.90
28438;DHT22;15667;52.376;9.708;2023-04-08T08:21:11;6.60;99.90
28438;DHT22;15667;52.376;9.708;2023-04-08T08:23:37;6.60;99.90
28438;DHT22;15667;52.376;9.708;2023-04-08T08:26:07;6.60;99.90
28438;DHT22;15667;52.376;9.708;2023-04-08T08:28:37;7.60;99.90
28438;DHT22;15667;52.376;9.708;2023-04-08T08:31:03;6.80;99.90
28438;DHT22;15667;52.376;9.708;2023-04-08T08:33:31;6.80;99.90
28438;DHT22;15667;52.376;9.708;2023-04-08T08:38:46;6.90;99.90
28438;DHT22;15667;52.376;9.708;2023-04-08T08:41:12;5.90;99.90
28438;DHT22;15667;52.376;9.708;2023-04-08T08:43:41;6.70;99.90
28438;DHT22;15667;52.376;9.708;2023-04-08T08:46:09;6.90;99.90
28438;DHT22;15667;52.376;9.708;2023-04-08T08:48:36;6.40;99.90
28438;DHT22;15667;52.376;9.708;2023-04-08T08:51:09;7.00;99.90
28438;DHT22;15667;52.376;9.708;2023-04-08T08:53:35;7.10;99.90
28438;DHT22;15667;52.376;9.708;2023-04-08T08:56:01;7.00;99.90
28438;DHT22;15667;52.376;9.708;2023-04-08T08:58:27;7.90;99.90
28438;DHT22;15667;52.376;9.708;2023-04-08T09:00:53;7.80;99.90
28438;DHT22;15667;52.376;9.708;2023-04-08T09:03:20;6.30;99.90
28438;DHT22;15667;52.376;9.708;2023-04-08T09:05:58;6.90;99.90
28438;DHT22;15667;52.376;9.708;2023-04-08T09:08:37;6.90;99.90
28438;DHT22;15667;52.376;9.708;2023-04-08T09:11:19;7.00;99.90
28438;DHT22;15667;52.376;9.708;2023-04-08T09:13:48;8.00;99.90
28438;DHT22;15667;52.376;9.708;2023-04-08T09:16:16;8.10;99.90
28438;DHT22;15667;52.376;9.708;2023-04-08T09:18:46;7.30;99.90
28438;DHT22;15667;52.376;9.708;2023-04-08T09:21:22;6.90;99.90
28438;DHT22;15667;52.376;9.708;2023-04-08T09:23:53;6.00;99.90
28438;DHT22;15667;52.376;9.708;2023-04-08T09:26:22;6.50;99.90
28438;DHT22;15667;52.376;9.708;2023-04-08T09:29:07;7.30;99.90
28438;DHT22;15667;52.376;9.708;2023-04-08T09:31:35;7.30;99.90
28438;DHT22;15667;52.376;9.708;2023-04-08T09:34:11;7.10;99.90
28438;DHT22;15667;52.376;9.708;2023-04-08T09:36:38;7.70;99.90
28438;DHT22;15667;52.376;9.708;2023-04-08T09:39:04;7.30;99.90
28438;DHT22;15667;52.376;9.708;2023-04-08T09:41:34;8.90;99.90
28438;DHT22;15667;52.376;9.708;2023-04-08T09:44:05;8.30;99.90
28438;DHT22;15667;52.376;9.708;2023-04-08T10:00:04;7.50;99.90
28438;DHT22;15667;52.376;9.708;2023-04-08T10:02:40;7.60;99.90
28438;DHT22;15667;52.376;9.708;2023-04-08T10:05:11;7.40;99.90
28438;DHT22;15667;52.376;9.708;2023-04-08T10:07:37;7.30;99.90
28438;DHT22;15667;52.376;9.708;2023-04-08T10:10:04;7.40;99.90
28438;DHT22;15667;52.376;9.708;2023-04-08T10:12:32;7.50;99.90
28438;DHT22;15667;52.376;9.708;2023-04-08T10:18:29;7.50;99.90
28438;DHT22;15667;52.376;9.708;2023-04-08T10:20:47;7.70;99.90
28438;DHT22;15667;52.376;9.708;2023-04-08T10:23:15;7.80;99.90
28438;DHT22;15667;52.376;9.708;2023-04-08T10:25:45;7.90;99.90
28438;DHT22;15667;52.376;9.708;2023-04-08T10:33:11;7.60;99.90
28438;DHT22;15667;52.376;9.708;2023-04-08T10:35:46;7.60;99.90
28438;DHT22;15667;52.376;9.708;2023-04-08T10:38:13;7.60;99.90
28438;DHT22;15667;52.376;9.708;2023-04-08T10:40:40;8.10;99.90
28438;DHT22;15667;52.376;9.708;2023-04-08T10:43:08;8.40;99.90
28438;DHT22;15667;52.376;9.708;2023-04-08T10:45:34;8.60;99.90
28438;DHT22;15667;52.376;9.708;2023-04-08T10:48:19;8.00;99.90
28438;DHT22;15667;52.376;9.708;2023-04-08T10:50:58;8.00;99.90
28438;DHT22;15667;52.376;9.708;2023-04-08T10:53:34;8.00;99.90
28438;DHT22;15667;52.376;9.708;2023-04-08T10:56:11;7.90;99.90
28438;DHT22;15667;52.376;9.708;2023-04-08T10:58:50;7.70;99.90
28438;DHT22;15667;52.376;9.708;2023-04-08T11:01:15;8.80;99.90
28438;DHT22;15667;52.376;9.708;2023-04-08T11:03:42;7.80;99.90
28438;DHT22;15667;52.376;9.708;2023-04-08T11:06:08;9.00;99.90
28438;DHT22;15667;52.376;9.708;2023-04-08T11:08:35;8.10;99.90
28438;DHT22;15667;52.376;9.708;2023-04-08T11:11:04;8.00;99.90
28438;DHT22;15667;52.376;9.708;2023-04-08T11:13:39;8.00;99.90
28438;DHT22;15667;52.376;9.708;2023-04-08T11:16:06;8.50;99.90
28438;DHT22;15667;52.376;9.708;2023-04-08T11:18:34;9.20;99.90
28438;DHT22;15667;52.376;9.708;2023-04-08T11:21:00;8.10;99.90
28438;DHT22;15667;52.376;9.708;2023-04-08T11:23:28;8.60;99.90
28438;DHT22;15667;52.376;9.708;2023-04-08T11:25:54;8.10;99.90
28438;DHT22;15667;52.376;9.708;2023-04-08T11:28:21;8.80;99.90
28438;DHT22;15667;52.376;9.708;2023-04-08T11:30:47;8.20;99.90
28438;DHT22;15667;52.376;9.708;2023-04-08T11:33:13;8.10;99.90
28438;DHT22;15667;52.376;9.708;2023-04-08T11:35:42;9.20;99.90
28438;DHT22;15667;52.376;9.708;2023-04-08T11:38:11;8.20;99.90
28438;DHT22;15667;52.376;9.708;2023-04-08T11:40:37;8.20;99.90
28438;DHT22;15667;52.376;9.708;2023-04-08T11:43:10;8.80;99.90
28438;DHT22;15667;52.376;9.708;2023-04-08T11:45:40;8.10;99.90
28438;DHT22;15667;52.376;9.708;2023-04-08T11:48:13;8.10;99.90
28438;DHT22;15667;52.376;9.708;2023-04-08T11:50:39;8.20;99.90
28438;DHT22;15667;52.376;9.708;2023-04-08T11:53:16;9.50;99.90
28438;DHT22;15667;52.376;9.708;2023-04-08T11:55:42;8.40;99.90
28438;DHT22;15667;52.376;9.708;2023-04-08T11:58:08;8.30;99.90
28438;DHT22;15667;52.376;9.708;2023-04-08T12:00:34;7.50;99.90
28438;DHT22;15667;52.376;9.708;2023-04-08T12:03:01;8.20;99.90
28438;DHT22;15667;52.376;9.708;2023-04-08T12:05:27;8.10;99.90
28438;DHT22;15667;52.376;9.708;2023-04-08T12:07:52;9.30;99.90
28438;DHT22;15667;52.376;9.708;2023-04-08T12:10:18;8.90;99.90
28438;DHT22;15667;52.376;9.708;2023-04-08T12:12:44;8.00;99.90
28438;DHT22;15667;52.376;9.708;2023-04-08T12:15:10;8.00;99.90
28438;DHT22;15667;52.376;9.708;2023-04-08T12:17:36;8.10;99.90
28438;DHT22;15667;52.376;9.708;2023-04-08T12:20:04;8.20;99.90
28438;DHT22;15667;52.376;9.708;2023-04-08T12:22:29;8.10;99.90
28438;DHT22;15667;52.376;9.708;2023-04-08T12:24:55;8.20;99.90
28438;DHT22;15667;52.376;9.708;2023-04-08T12:27:21;9.50;99.90
28438;DHT22;15667;52.376;9.708;2023-04-08T12:29:46;8.30;99.90
28438;DHT22;15667;52.376;9.708;2023-04-08T12:32:14;8.30;99.90
28438;DHT22;15667;52.376;9.708;2023-04-08T12:34:40;8.20;99.90
28438;DHT22;15667;52.376;9.708;2023-04-08T12:37:06;9.10;99.90
28438;DHT22;15667;52.376;9.708;2023-04-08T12:39:31;8.20;99.90
28438;DHT22;15667;52.376;9.708;2023-04-08T12:41:57;8.20;99.90
28438;DHT22;15667;52.376;9.708;2023-04-08T12:44:24;8.10;99.90
28438;DHT22;15667;52.376;9.708;2023-04-08T12:46:49;9.20;99.90
28438;DHT22;15667;52.376;9.708;2023-04-08T12:49:15;8.80;99.90
28438;DHT22;15667;52.376;9.708;2023-04-08T12:51:41;8.10;99.90
28438;DHT22;15667;52.376;9.708;2023-04-08T12:54:06;8.60;99.90
28438;DHT22;15667;52.376;9.708;2023-04-08T12:56:33;8.30;99.90
28438;DHT22;15667;52.376;9.708;2023-04-08T12:58:59;8.00;99.90
28438;DHT22;15667;52.376;9.708;2023-04-08T13:01:25;8.10;99.90
28438;DHT22;15667;52.376;9.708;2023-04-08T13:03:51;9.20;99.90
28438;DHT22;15667;52.376;9.708;2023-04-08T13:06:17;7.90;99.90
28438;DHT22;15667;52.376;9.708;2023-04-08T13:08:42;8.10;99.90
28438;DHT22;15667;52.376;9.708;2023-04-08T13:11:08;8.20;99.90
28438;DHT22;15667;52.376;9.708;2023-04-08T13:13:34;8.10;99.90
28438;DHT22;15667;52.376;9.708;2023-04-08T13:16:01;8.20;99.90
28438;DHT22;15667;52.376;9.708;2023-04-08T13:18:26;8.20;99.90
28438;DHT22;15667;52.376;9.708;2023-04-08T13:20:52;8.20;99.90
28438;DHT22;15667;52.376;9.708;2023-04-08T13:23:19;8.10;99.90
28438;DHT22;15667;52.376;9.708;2023-04-08T13:25:45;8.00;99.90
28438;DHT22;15667;52.376;9.708;2023-04-08T13:28:11;8.20;99.90
28438;DHT22;15667;52.376;9.708;2023-04-08T13:30:36;8.30;99.90
28438;DHT22;15667;52.376;9.708;2023-04-08T13:33:02;8.50;99.90
28438;DHT22;15667;52.376;9.708;2023-04-08T13:35:28;8.40;99.90
28438;DHT22;15667;52.376;9.708;2023-04-08T13:37:54;9.40;99.90
28438;DHT22;15667;52.376;9.708;2023-04-08T13:40:19;8.60;99.90
28438;DHT22;15667;52.376;9.708;2023-04-08T13:42:45;9.10;99.90
28438;DHT22;15667;52.376;9.708;2023-04-08T13:45:12;9.70;99.90
28438;DHT22;15667;52.376;9.708;2023-04-08T13:47:37;8.90;99.90
28438;DHT22;15667;52.376;9.708;2023-04-08T13:50:04;9.90;99.90
28438;DHT22;15667;52.376;9.708;2023-04-08T13:52:30;9.00;99.90
28438;DHT22;15667;52.376;9.708;2023-04-08T13:54:56;9.00;99.90
28438;DHT22;15667;52.376;9.708;2023-04-08T13:57:22;9.20;99.90
28438;DHT22;15667;52.376;9.708;2023-04-08T13:59:47;9.30;99.90
28438;DHT22;15667;52.376;9.708;2023-04-08T14:02:13;9.50;99.90
28438;DHT22;15667;52.376;9.708;2023-04-08T14:04:38;9.10;99.90
28438;DHT22;15667;52.376;9.708;2023-04-08T14:07:04;9.00;99.90
28438;DHT22;15667;52.376;9.708;2023-04-08T14:09:30;8.90;99.90
28438;DHT22;15667;52.376;9.708;2023-04-08T14:11:55;10.00;99.90
28438;DHT22;15667;52.376;9.708;2023-04-08T14:14:21;8.90;99.90
28438;DHT22;15667;52.376;9.708;2023-04-08T14:16:47;9.80;99.90
28438;DHT22;15667;52.376;9.708;2023-04-08T14:19:13;9.00;99.90
28438;DHT22;15667;52.376;9.708;2023-04-08T14:21:39;9.80;99.90
28438;DHT22;15667;52.376;9.708;2023-04-08T14:24:05;9.80;99.90
28438;DHT22;15667;52.376;9.708;2023-04-08T14:26:31;10.40;99.90
28438;DHT22;15667;52.376;9.708;2023-04-08T14:29:01;10.10;99.90
28438;DHT22;15667;52.376;9.708;2023-04-08T14:31:27;9.50;99.90
28438;DHT22;15667;52.376;9.708;2023-04-08T14:33:53;9.80;99.90
28438;DHT22;15667;52.376;9.708;2023-04-08T14:36:18;8.80;99.90
28438;DHT22;15667;52.376;9.708;2023-04-08T14:38:44;9.00;99.90
28438;DHT22;15667;52.376;9.708;2023-04-08T14:41:10;9.70;99.90
28438;DHT22;15667;52.376;9.708;2023-04-08T14:43:36;8.60;99.90
28438;DHT22;15667;52.376;9.708;2023-04-08T14:46:01;9.90;99.90
28438;DHT22;15667;52.376;9.708;2023-04-08T14:48:27;8.90;99.90
28438;DHT22;15667;52.376;9.708;2023-04-08T14:50:55;10.00;99.90
28438;DHT22;15667;52.376;9.708;2023-04-08T14:53:21;10.00;99.90
28438;DHT22;15667;52.376;9.708;2023-04-08T14:55:48;8.80;99.90
28438;DHT22;15667;52.376;9.708;2023-04-08T14:58:14;8.90;99.90
28438;DHT22;15667;52.376;9.708;2023-04-08T15:00:43;9.00;99.90
28438;DHT22;15667;52.376;9.708;2023-04-08T15:03:10;9.00;99.90
28438;DHT22;15667;52.376;9.708;2023-04-08T15:05:36;9.10;99.90
28438;DHT22;15667;52.376;9.708;2023-04-08T15:08:02;9.50;99.90
28438;DHT22;15667;52.376;9.708;2023-04-08T15:10:28;9.10;99.90
28438;DHT22;15667;52.376;9.708;2023-04-08T15:12:54;9.00;99.90
28438;DHT22;15667;52.376;9.708;2023-04-08T15:15:19;9.00;99.90
28438;DHT22;15667;52.376;9.708;2023-04-08T15:17:45;8.80;99.90
28438;DHT22;15667;52.376;9.708;2023-04-08T15:20:11;9.00;99.90
28438;DHT22;15667;52.376;9.708;2023-04-08T15:22:38;8.90;99.90
28438;DHT22;15667;52.376;9.708;2023-04-08T15:25:04;8.90;99.90
28438;DHT22;15667;52.376;9.708;2023-04-08T15:27:31;8.80;99.90
28438;DHT22;15667;52.376;9.708;2023-04-08T15:29:57;8.80;99.90
28438;DHT22;15667;52.376;9.708;2023-04-08T15:32:22;8.70;99.90
28438;DHT22;15667;52.376;9.708;2023-04-08T15:34:48;8.80;99.90
28438;DHT22;15667;52.376;9.708;2023-04-08T15:37:15;8.80;99.90
28438;DHT22;15667;52.376;9.708;2023-04-08T15:39:41;9.60;99.90
28438;DHT22;15667;52.376;9.708;2023-04-08T15:42:07;8.90;99.90
28438;DHT22;15667;52.376;9.708;2023-04-08T15:44:33;9.20;99.90
28438;DHT22;15667;52.376;9.708;2023-04-08T15:46:59;8.90;99.90
28438;DHT22;15667;52.376;9.708;2023-04-08T15:49:28;9.10;99.90
28438;DHT22;15667;52.376;9.708;2023-04-08T15:51:54;8.90;99.90
28438;DHT22;15667;52.376;9.708;2023-04-08T15:54:20;10.00;99.90
28438;DHT22;15667;52.376;9.708;2023-04-08T15:56:46;8.90;99.90
28438;DHT22;15667;52.376;9.708;2023-04-08T15:59:12;8.90;99.90
28438;DHT22;15667;52.376;9.708;2023-04-08T16:01:38;10.20;99.90
28438;DHT22;15667;52.376;9.708;2023-04-08T16:04:04;8.90;99.90
28438;DHT22;15667;52.376;9.708;2023-04-08T16:06:31;9.70;99.90
28438;DHT22;15667;52.376;9.708;2023-04-08T16:08:58;9.40;99.90
28438;DHT22;15667;52.376;9.708;2023-04-08T16:11:24;9.80;99.90
28438;DHT22;15667;52.376;9.708;2023-04-08T16:13:53;10.20;99.90
28438;DHT22;15667;52.376;9.708;2023-04-08T16:16:21;8.70;99.90